Hillsboro, Wisconsin
Current Conditions -  °F | °C
As of 6:35 AM on Saturday 20 Dec 2014 (Local Time) from KC35 Reporting Station
Light Snow Light Snow  
Wind Chill: 26°   Ceiling: 4500
Heat Index: 26°   Visibility: 7mi
Dew Point: 24°   Wind: 0mph
Humidity: 92%   Direction: NA
Pressure: 30.24"   Gusts: NA
Location:  43.65°N, 90.34°W
Report Text: KC35 201235Z AUTO 00000KT 7SM -SN OVC045 M04/M05 A3024 RMK AO2 T10361047
Loading
Personal Weather Stations






























Interactive Weather Map New forecast layout! Learn more

10-Day Weather Forecast

Advertisements
Track Severe Weather on mobile